sensor_id;sensor_type;location;lat;lon;timestamp;P1;durP1;ratioP1;P2;durP2;ratioP2
33593;SDS011;19920;52.242;20.940;2023-05-16T00:01:27;6.55;;;5.20;;
33593;SDS011;19920;52.242;20.940;2023-05-16T00:03:54;6.30;;;5.50;;
33593;SDS011;19920;52.242;20.940;2023-05-16T00:06:20;6.05;;;5.45;;
33593;SDS011;19920;52.242;20.940;2023-05-16T00:08:47;6.85;;;6.10;;
33593;SDS011;19920;52.242;20.940;2023-05-16T00:11:15;6.93;;;5.53;;
33593;SDS011;19920;52.242;20.940;2023-05-16T00:13:41;7.80;;;6.00;;
33593;SDS011;19920;52.242;20.940;2023-05-16T00:16:07;7.63;;;5.70;;
33593;SDS011;19920;52.242;20.940;2023-05-16T00:18:33;7.68;;;6.30;;
33593;SDS011;19920;52.242;20.940;2023-05-16T00:21:02;6.43;;;5.82;;
33593;SDS011;19920;52.242;20.940;2023-05-16T00:23:28;9.25;;;6.28;;
33593;SDS011;19920;52.242;20.940;2023-05-16T00:25:54;7.63;;;6.22;;
33593;SDS011;19920;52.242;20.940;2023-05-16T00:28:20;7.32;;;6.57;;
33593;SDS011;19920;52.242;20.940;2023-05-16T00:30:46;7.88;;;6.72;;
33593;SDS011;19920;52.242;20.940;2023-05-16T00:33:12;9.55;;;6.45;;
33593;SDS011;19920;52.242;20.940;2023-05-16T00:35:37;7.80;;;6.68;;
33593;SDS011;19920;52.242;20.940;2023-05-16T00:38:03;9.18;;;6.60;;
33593;SDS011;19920;52.242;20.940;2023-05-16T00:40:29;7.90;;;6.90;;
33593;SDS011;19920;52.242;20.940;2023-05-16T00:42:55;9.15;;;6.55;;
33593;SDS011;19920;52.242;20.940;2023-05-16T00:45:21;7.75;;;6.85;;
33593;SDS011;19920;52.242;20.940;2023-05-16T00:47:46;8.88;;;7.22;;
33593;SDS011;19920;52.242;20.940;2023-05-16T00:50:12;8.20;;;7.40;;
33593;SDS011;19920;52.242;20.940;2023-05-16T00:52:37;7.53;;;6.80;;
33593;SDS011;19920;52.242;20.940;2023-05-16T00:55:03;9.57;;;7.65;;
33593;SDS011;19920;52.242;20.940;2023-05-16T00:57:30;9.15;;;7.30;;
33593;SDS011;19920;52.242;20.940;2023-05-16T00:59:55;9.07;;;7.85;;
33593;SDS011;19920;52.242;20.940;2023-05-16T01:02:21;10.23;;;7.78;;
33593;SDS011;19920;52.242;20.940;2023-05-16T01:04:47;8.45;;;7.40;;
33593;SDS011;19920;52.242;20.940;2023-05-16T01:07:15;8.45;;;7.65;;
33593;SDS011;19920;52.242;20.940;2023-05-16T01:09:41;9.00;;;7.47;;
33593;SDS011;19920;52.242;20.940;2023-05-16T01:15:12;10.57;;;7.82;;
33593;SDS011;19920;52.242;20.940;2023-05-16T01:17:56;10.45;;;7.32;;
33593;SDS011;19920;52.242;20.940;2023-05-16T01:23:18;11.77;;;8.73;;
33593;SDS011;19920;52.242;20.940;2023-05-16T01:28:16;10.35;;;7.95;;
33593;SDS011;19920;52.242;20.940;2023-05-16T01:30:43;11.45;;;7.82;;
33593;SDS011;19920;52.242;20.940;2023-05-16T01:33:09;9.45;;;8.07;;
33593;SDS011;19920;52.242;20.940;2023-05-16T01:35:36;9.93;;;8.82;;
33593;SDS011;19920;52.242;20.940;2023-05-16T01:38:15;9.45;;;8.20;;
33593;SDS011;19920;52.242;20.940;2023-05-16T01:43:16;10.77;;;8.57;;
33593;SDS011;19920;52.242;20.940;2023-05-16T01:45:53;10.57;;;8.02;;
33593;SDS011;19920;52.242;20.940;2023-05-16T01:48:26;11.32;;;8.50;;
33593;SDS011;19920;52.242;20.940;2023-05-16T01:50:58;9.48;;;8.48;;
33593;SDS011;19920;52.242;20.940;2023-05-16T01:53:26;11.90;;;9.30;;
33593;SDS011;19920;52.242;20.940;2023-05-16T01:55:56;10.15;;;9.02;;
33593;SDS011;19920;52.242;20.940;2023-05-16T01:58:25;9.93;;;8.73;;
33593;SDS011;19920;52.242;20.940;2023-05-16T02:00:58;11.07;;;9.02;;
33593;SDS011;19920;52.242;20.940;2023-05-16T02:03:25;10.43;;;8.65;;
33593;SDS011;19920;52.242;20.940;2023-05-16T02:05:51;11.93;;;9.38;;
33593;SDS011;19920;52.242;20.940;2023-05-16T02:08:16;9.93;;;8.93;;
33593;SDS011;19920;52.242;20.940;2023-05-16T02:10:42;9.75;;;8.85;;
33593;SDS011;19920;52.242;20.940;2023-05-16T02:13:08;11.70;;;8.73;;
33593;SDS011;19920;52.242;20.940;2023-05-16T02:15:33;11.07;;;8.77;;
33593;SDS011;19920;52.242;20.940;2023-05-16T02:17:59;11.90;;;8.63;;
33593;SDS011;19920;52.242;20.940;2023-05-16T02:20:25;10.02;;;9.02;;
33593;SDS011;19920;52.242;20.940;2023-05-16T02:22:50;11.13;;;9.18;;
33593;SDS011;19920;52.242;20.940;2023-05-16T02:25:16;9.65;;;8.65;;
33593;SDS011;19920;52.242;20.940;2023-05-16T02:27:42;10.68;;;9.27;;
33593;SDS011;19920;52.242;20.940;2023-05-16T02:30:08;11.13;;;9.02;;
33593;SDS011;19920;52.242;20.940;2023-05-16T02:32:36;11.20;;;9.23;;
33593;SDS011;19920;52.242;20.940;2023-05-16T02:35:02;10.18;;;9.10;;
33593;SDS011;19920;52.242;20.940;2023-05-16T02:37:28;10.20;;;9.13;;
33593;SDS011;19920;52.242;20.940;2023-05-16T02:39:54;13.30;;;8.23;;
33593;SDS011;19920;52.242;20.940;2023-05-16T02:42:20;9.70;;;8.70;;
33593;SDS011;19920;52.242;20.940;2023-05-16T02:44:45;14.65;;;8.98;;
33593;SDS011;19920;52.242;20.940;2023-05-16T02:47:11;10.40;;;9.35;;
33593;SDS011;19920;52.242;20.940;2023-05-16T02:49:37;10.32;;;9.07;;
33593;SDS011;19920;52.242;20.940;2023-05-16T02:52:02;10.35;;;9.15;;
33593;SDS011;19920;52.242;20.940;2023-05-16T02:54:28;9.73;;;8.82;;
33593;SDS011;19920;52.242;20.940;2023-05-16T02:56:54;10.90;;;8.68;;
33593;SDS011;19920;52.242;20.940;2023-05-16T02:59:19;9.98;;;8.98;;
33593;SDS011;19920;52.242;20.940;2023-05-16T03:01:45;10.65;;;9.52;;
33593;SDS011;19920;52.242;20.940;2023-05-16T03:04:11;10.13;;;9.10;;
33593;SDS011;19920;52.242;20.940;2023-05-16T03:06:36;9.93;;;8.93;;
33593;SDS011;19920;52.242;20.940;2023-05-16T03:09:02;10.13;;;8.88;;
33593;SDS011;19920;52.242;20.940;2023-05-16T03:11:28;10.15;;;9.10;;
33593;SDS011;19920;52.242;20.940;2023-05-16T03:13:53;10.82;;;9.23;;
33593;SDS011;19920;52.242;20.940;2023-05-16T03:16:19;10.43;;;9.35;;
33593;SDS011;19920;52.242;20.940;2023-05-16T03:18:45;11.23;;;9.52;;
33593;SDS011;19920;52.242;20.940;2023-05-16T03:21:11;10.38;;;9.18;;
33593;SDS011;19920;52.242;20.940;2023-05-16T03:23:37;10.75;;;9.05;;
33593;SDS011;19920;52.242;20.940;2023-05-16T03:26:02;11.23;;;9.73;;
33593;SDS011;19920;52.242;20.940;2023-05-16T03:28:28;10.77;;;8.43;;
33593;SDS011;19920;52.242;20.940;2023-05-16T03:30:54;12.23;;;9.30;;
33593;SDS011;19920;52.242;20.940;2023-05-16T03:33:19;10.27;;;8.70;;
33593;SDS011;19920;52.242;20.940;2023-05-16T03:35:45;9.73;;;8.73;;
33593;SDS011;19920;52.242;20.940;2023-05-16T03:38:11;10.20;;;9.20;;
33593;SDS011;19920;52.242;20.940;2023-05-16T03:40:37;13.43;;;8.88;;
33593;SDS011;19920;52.242;20.940;2023-05-16T03:43:02;12.02;;;9.45;;
33593;SDS011;19920;52.242;20.940;2023-05-16T03:45:28;10.73;;;8.95;;
33593;SDS011;19920;52.242;20.940;2023-05-16T03:47:55;11.00;;;9.82;;
33593;SDS011;19920;52.242;20.940;2023-05-16T03:50:21;11.90;;;10.23;;
33593;SDS011;19920;52.242;20.940;2023-05-16T03:52:47;11.13;;;9.50;;
33593;SDS011;19920;52.242;20.940;2023-05-16T03:55:13;11.35;;;10.15;;
33593;SDS011;19920;52.242;20.940;2023-05-16T03:57:39;11.15;;;10.00;;
33593;SDS011;19920;52.242;20.940;2023-05-16T04:00:08;11.07;;;9.93;;
33593;SDS011;19920;52.242;20.940;2023-05-16T04:02:35;10.02;;;9.02;;
33593;SDS011;19920;52.242;20.940;2023-05-16T04:05:01;11.10;;;8.90;;
33593;SDS011;19920;52.242;20.940;2023-05-16T04:07:27;10.30;;;8.50;;
33593;SDS011;19920;52.242;20.940;2023-05-16T04:09:53;12.10;;;9.27;;
33593;SDS011;19920;52.242;20.940;2023-05-16T04:12:19;11.30;;;9.20;;
33593;SDS011;19920;52.242;20.940;2023-05-16T04:14:45;12.45;;;9.57;;
33593;SDS011;19920;52.242;20.940;2023-05-16T04:17:11;10.25;;;9.25;;
33593;SDS011;19920;52.242;20.940;2023-05-16T04:19:37;9.75;;;8.75;;
33593;SDS011;19920;52.242;20.940;2023-05-16T04:22:02;10.63;;;9.52;;
33593;SDS011;19920;52.242;20.940;2023-05-16T04:24:28;14.45;;;9.52;;
33593;SDS011;19920;52.242;20.940;2023-05-16T04:26:54;12.63;;;10.55;;
33593;SDS011;19920;52.242;20.940;2023-05-16T04:29:19;11.60;;;9.18;;
33593;SDS011;19920;52.242;20.940;2023-05-16T04:31:46;10.43;;;9.25;;
33593;SDS011;19920;52.242;20.940;2023-05-16T04:34:12;11.60;;;8.52;;
33593;SDS011;19920;52.242;20.940;2023-05-16T04:36:37;9.85;;;8.55;;
33593;SDS011;19920;52.242;20.940;2023-05-16T04:39:04;10.27;;;9.18;;
33593;SDS011;19920;52.242;20.940;2023-05-16T04:41:30;9.57;;;8.25;;
33593;SDS011;19920;52.242;20.940;2023-05-16T04:43:55;10.63;;;8.27;;
33593;SDS011;19920;52.242;20.940;2023-05-16T04:46:21;12.40;;;9.13;;
33593;SDS011;19920;52.242;20.940;2023-05-16T04:48:47;10.68;;;9.15;;
33593;SDS011;19920;52.242;20.940;2023-05-16T04:51:13;9.55;;;8.55;;
33593;SDS011;19920;52.242;20.940;2023-05-16T04:53:38;11.73;;;8.50;;
33593;SDS011;19920;52.242;20.940;2023-05-16T04:56:04;11.32;;;8.82;;
33593;SDS011;19920;52.242;20.940;2023-05-16T04:58:30;9.88;;;8.23;;
33593;SDS011;19920;52.242;20.940;2023-05-16T05:00:56;9.35;;;7.57;;
33593;SDS011;19920;52.242;20.940;2023-05-16T05:03:22;10.07;;;7.88;;
33593;SDS011;19920;52.242;20.940;2023-05-16T05:05:48;8.63;;;7.70;;
33593;SDS011;19920;52.242;20.940;2023-05-16T05:08:14;10.50;;;7.82;;
33593;SDS011;19920;52.242;20.940;2023-05-16T05:10:40;10.77;;;7.82;;
33593;SDS011;19920;52.242;20.940;2023-05-16T05:13:06;8.70;;;7.80;;
33593;SDS011;19920;52.242;20.940;2023-05-16T05:15:32;9.60;;;7.47;;
33593;SDS011;19920;52.242;20.940;2023-05-16T05:17:57;9.00;;;8.07;;
33593;SDS011;19920;52.242;20.940;2023-05-16T05:20:23;10.43;;;8.00;;
33593;SDS011;19920;52.242;20.940;2023-05-16T05:22:49;11.05;;;8.07;;
33593;SDS011;19920;52.242;20.940;2023-05-16T05:25:14;8.73;;;7.82;;
33593;SDS011;19920;52.242;20.940;2023-05-16T05:27:40;9.55;;;8.05;;
33593;SDS011;19920;52.242;20.940;2023-05-16T05:30:06;11.70;;;7.90;;
33593;SDS011;19920;52.242;20.940;2023-05-16T05:32:32;9.05;;;8.15;;
33593;SDS011;19920;52.242;20.940;2023-05-16T05:34:57;9.50;;;8.38;;
33593;SDS011;19920;52.242;20.940;2023-05-16T05:37:23;10.02;;;8.43;;
33593;SDS011;19920;52.242;20.940;2023-05-16T05:39:50;9.40;;;8.32;;
33593;SDS011;19920;52.242;20.940;2023-05-16T05:42:16;11.95;;;7.90;;
33593;SDS011;19920;52.242;20.940;2023-05-16T05:44:42;9.52;;;7.82;;
33593;SDS011;19920;52.242;20.940;2023-05-16T05:47:07;17.40;;;8.75;;
33593;SDS011;19920;52.242;20.940;2023-05-16T05:49:33;11.63;;;8.80;;
33593;SDS011;19920;52.242;20.940;2023-05-16T05:51:59;11.32;;;8.70;;
33593;SDS011;19920;52.242;20.940;2023-05-16T05:54:25;10.20;;;9.10;;
33593;SDS011;19920;52.242;20.940;2023-05-16T05:56:51;9.23;;;8.30;;
33593;SDS011;19920;52.242;20.940;2023-05-16T05:59:17;9.93;;;8.93;;
33593;SDS011;19920;52.242;20.940;2023-05-16T06:01:42;14.20;;;8.80;;
33593;SDS011;19920;52.242;20.940;2023-05-16T06:04:08;10.52;;;9.45;;
33593;SDS011;19920;52.242;20.940;2023-05-16T06:06:35;9.95;;;9.05;;
33593;SDS011;19920;52.242;20.940;2023-05-16T06:09:01;10.05;;;9.02;;
33593;SDS011;19920;52.242;20.940;2023-05-16T06:11:27;14.50;;;9.30;;
33593;SDS011;19920;52.242;20.940;2023-05-16T06:13:53;11.40;;;9.55;;
33593;SDS011;19920;52.242;20.940;2023-05-16T06:16:18;16.70;;;10.27;;
33593;SDS011;19920;52.242;20.940;2023-05-16T06:18:47;11.30;;;10.15;;
33593;SDS011;19920;52.242;20.940;2023-05-16T06:21:13;10.80;;;9.63;;
33593;SDS011;19920;52.242;20.940;2023-05-16T06:23:39;12.25;;;10.48;;
33593;SDS011;19920;52.242;20.940;2023-05-16T06:26:05;11.43;;;10.20;;
33593;SDS011;19920;52.242;20.940;2023-05-16T06:28:30;12.02;;;10.73;;
33593;SDS011;19920;52.242;20.940;2023-05-16T06:30:56;12.70;;;11.38;;
33593;SDS011;19920;52.242;20.940;2023-05-16T06:33:22;12.50;;;11.00;;
33593;SDS011;19920;52.242;20.940;2023-05-16T06:35:48;12.90;;;11.52;;
33593;SDS011;19920;52.242;20.940;2023-05-16T06:38:14;12.20;;;10.70;;
33593;SDS011;19920;52.242;20.940;2023-05-16T06:40:40;11.07;;;9.95;;
33593;SDS011;19920;52.242;20.940;2023-05-16T06:43:05;12.50;;;10.50;;
33593;SDS011;19920;52.242;20.940;2023-05-16T06:45:31;11.90;;;10.10;;
33593;SDS011;19920;52.242;20.940;2023-05-16T06:47:57;12.27;;;9.35;;
33593;SDS011;19920;52.242;20.940;2023-05-16T06:50:22;10.90;;;9.90;;
33593;SDS011;19920;52.242;20.940;2023-05-16T06:52:48;11.60;;;9.93;;
33593;SDS011;19920;52.242;20.940;2023-05-16T06:55:14;12.88;;;8.90;;
33593;SDS011;19920;52.242;20.940;2023-05-16T06:57:39;9.43;;;8.40;;
33593;SDS011;19920;52.242;20.940;2023-05-16T07:00:05;8.77;;;7.95;;
33593;SDS011;19920;52.242;20.940;2023-05-16T07:02:32;9.77;;;8.27;;
33593;SDS011;19920;52.242;20.940;2023-05-16T07:04:58;9.02;;;8.13;;
33593;SDS011;19920;52.242;20.940;2023-05-16T07:07:23;8.77;;;7.90;;
33593;SDS011;19920;52.242;20.940;2023-05-16T07:09:49;8.25;;;7.45;;
33593;SDS011;19920;52.242;20.940;2023-05-16T07:12:15;10.55;;;8.63;;
33593;SDS011;19920;52.242;20.940;2023-05-16T07:14:40;9.07;;;8.18;;
33593;SDS011;19920;52.242;20.940;2023-05-16T07:17:07;10.70;;;8.05;;
33593;SDS011;19920;52.242;20.940;2023-05-16T07:19:33;12.70;;;8.32;;
33593;SDS011;19920;52.242;20.940;2023-05-16T07:21:59;10.73;;;8.48;;
33593;SDS011;19920;52.242;20.940;2023-05-16T07:24:25;8.93;;;8.10;;
33593;SDS011;19920;52.242;20.940;2023-05-16T07:26:50;8.70;;;7.78;;
33593;SDS011;19920;52.242;20.940;2023-05-16T07:29:16;9.52;;;7.90;;
33593;SDS011;19920;52.242;20.940;2023-05-16T07:31:42;7.63;;;6.43;;
33593;SDS011;19920;52.242;20.940;2023-05-16T07:34:08;6.47;;;5.88;;
33593;SDS011;19920;52.242;20.940;2023-05-16T07:36:34;6.70;;;5.75;;
33593;SDS011;19920;52.242;20.940;2023-05-16T07:39:00;6.05;;;4.78;;
33593;SDS011;19920;52.242;20.940;2023-05-16T07:41:27;5.03;;;4.50;;
33593;SDS011;19920;52.242;20.940;2023-05-16T07:43:53;7.28;;;4.75;;
33593;SDS011;19920;52.242;20.940;2023-05-16T07:46:19;6.05;;;5.07;;
33593;SDS011;19920;52.242;20.940;2023-05-16T07:48:44;6.40;;;5.57;;
33593;SDS011;19920;52.242;20.940;2023-05-16T07:51:10;5.85;;;5.35;;
33593;SDS011;19920;52.242;20.940;2023-05-16T07:53:36;5.18;;;4.28;;
33593;SDS011;19920;52.242;20.940;2023-05-16T07:56:02;5.88;;;4.38;;
33593;SDS011;19920;52.242;20.940;2023-05-16T07:58:27;4.32;;;3.78;;
33593;SDS011;19920;52.242;20.940;2023-05-16T08:00:53;10.23;;;4.35;;
33593;SDS011;19920;52.242;20.940;2023-05-16T08:03:19;4.80;;;3.78;;
33593;SDS011;19920;52.242;20.940;2023-05-16T08:05:44;5.30;;;3.92;;
33593;SDS011;19920;52.242;20.940;2023-05-16T08:08:10;5.43;;;3.63;;
33593;SDS011;19920;52.242;20.940;2023-05-16T08:10:36;5.93;;;3.80;;
33593;SDS011;19920;52.242;20.940;2023-05-16T08:13:01;3.85;;;3.28;;
33593;SDS011;19920;52.242;20.940;2023-05-16T08:15:28;4.03;;;3.33;;
33593;SDS011;19920;52.242;20.940;2023-05-16T08:17:57;4.78;;;3.20;;
33593;SDS011;19920;52.242;20.940;2023-05-16T08:20:26;5.43;;;3.45;;
33593;SDS011;19920;52.242;20.940;2023-05-16T08:22:52;5.82;;;3.45;;
33593;SDS011;19920;52.242;20.940;2023-05-16T08:25:18;5.88;;;3.40;;
33593;SDS011;19920;52.242;20.940;2023-05-16T08:27:45;3.67;;;3.38;;
33593;SDS011;19920;52.242;20.940;2023-05-16T08:30:11;4.20;;;3.80;;
33593;SDS011;19920;52.242;20.940;2023-05-16T08:32:37;4.15;;;3.10;;
33593;SDS011;19920;52.242;20.940;2023-05-16T08:35:03;3.85;;;3.42;;
33593;SDS011;19920;52.242;20.940;2023-05-16T08:37:29;3.70;;;3.00;;
33593;SDS011;19920;52.242;20.940;2023-05-16T08:39:55;4.53;;;3.47;;
33593;SDS011;19920;52.242;20.940;2023-05-16T08:42:20;3.28;;;2.97;;
33593;SDS011;19920;52.242;20.940;2023-05-16T08:44:46;3.45;;;3.13;;
33593;SDS011;19920;52.242;20.940;2023-05-16T08:47:12;5.53;;;3.15;;
33593;SDS011;19920;52.242;20.940;2023-05-16T08:49:43;4.45;;;3.60;;
33593;SDS011;19920;52.242;20.940;2023-05-16T08:52:12;7.55;;;3.30;;
33593;SDS011;19920;52.242;20.940;2023-05-16T08:54:38;6.03;;;3.15;;
33593;SDS011;19920;52.242;20.940;2023-05-16T08:57:05;3.63;;;2.97;;
33593;SDS011;19920;52.242;20.940;2023-05-16T08:59:32;4.20;;;3.30;;
33593;SDS011;19920;52.242;20.940;2023-05-16T09:01:59;4.20;;;3.33;;
33593;SDS011;19920;52.242;20.940;2023-05-16T09:04:25;5.35;;;3.65;;
33593;SDS011;19920;52.242;20.940;2023-05-16T09:06:51;5.78;;;4.05;;
33593;SDS011;19920;52.242;20.940;2023-05-16T09:09:17;5.75;;;3.42;;
33593;SDS011;19920;52.242;20.940;2023-05-16T09:11:43;5.85;;;3.47;;
33593;SDS011;19920;52.242;20.940;2023-05-16T09:14:09;4.30;;;3.35;;
33593;SDS011;19920;52.242;20.940;2023-05-16T09:16:35;4.63;;;3.08;;
33593;SDS011;19920;52.242;20.940;2023-05-16T09:19:01;2.78;;;2.53;;
33593;SDS011;19920;52.242;20.940;2023-05-16T09:21:27;3.45;;;2.50;;
33593;SDS011;19920;52.242;20.940;2023-05-16T09:23:55;2.17;;;1.95;;
33593;SDS011;19920;52.242;20.940;2023-05-16T09:26:26;2.20;;;1.70;;
33593;SDS011;19920;52.242;20.940;2023-05-16T09:28:53;2.97;;;2.13;;
33593;SDS011;19920;52.242;20.940;2023-05-16T09:33:57;2.10;;;1.90;;
33593;SDS011;19920;52.242;20.940;2023-05-16T09:36:24;2.50;;;1.83;;
33593;SDS011;19920;52.242;20.940;2023-05-16T09:38:50;2.80;;;1.88;;
33593;SDS011;19920;52.242;20.940;2023-05-16T09:41:16;2.72;;;2.30;;
33593;SDS011;19920;52.242;20.940;2023-05-16T09:43:42;2.25;;;2.05;;
33593;SDS011;19920;52.242;20.940;2023-05-16T09:46:12;2.60;;;1.85;;
33593;SDS011;19920;52.242;20.940;2023-05-16T09:48:45;3.63;;;2.30;;
33593;SDS011;19920;52.242;20.940;2023-05-16T09:51:12;3.28;;;2.10;;
33593;SDS011;19920;52.242;20.940;2023-05-16T09:53:38;2.33;;;2.05;;
33593;SDS011;19920;52.242;20.940;2023-05-16T09:56:06;2.28;;;2.00;;
33593;SDS011;19920;52.242;20.940;2023-05-16T09:58:35;2.10;;;1.90;;
33593;SDS011;19920;52.242;20.940;2023-05-16T10:01:02;2.30;;;1.90;;
33593;SDS011;19920;52.242;20.940;2023-05-16T10:03:28;3.00;;;1.83;;
33593;SDS011;19920;52.242;20.940;2023-05-16T10:05:55;4.53;;;2.10;;
33593;SDS011;19920;52.242;20.940;2023-05-16T10:08:21;2.47;;;1.90;;
33593;SDS011;19920;52.242;20.940;2023-05-16T10:10:50;3.00;;;1.98;;
33593;SDS011;19920;52.242;20.940;2023-05-16T10:13:20;2.53;;;2.03;;
33593;SDS011;19920;52.242;20.940;2023-05-16T10:15:57;2.70;;;2.20;;
33593;SDS011;19920;52.242;20.940;2023-05-16T10:18:27;2.40;;;2.00;;
33593;SDS011;19920;52.242;20.940;2023-05-16T10:20:54;4.22;;;1.92;;
33593;SDS011;19920;52.242;20.940;2023-05-16T10:23:22;2.50;;;1.90;;
33593;SDS011;19920;52.242;20.940;2023-05-16T10:25:50;2.33;;;1.70;;
33593;SDS011;19920;52.242;20.940;2023-05-16T10:28:16;2.67;;;2.00;;
33593;SDS011;19920;52.242;20.940;2023-05-16T10:30:43;2.20;;;2.00;;
33593;SDS011;19920;52.242;20.940;2023-05-16T10:33:14;2.30;;;2.10;;
33593;SDS011;19920;52.242;20.940;2023-05-16T10:35:41;2.67;;;2.20;;
33593;SDS011;19920;52.242;20.940;2023-05-16T10:38:08;2.60;;;1.85;;
33593;SDS011;19920;52.242;20.940;2023-05-16T10:40:36;2.03;;;1.80;;
33593;SDS011;19920;52.242;20.940;2023-05-16T10:43:03;1.75;;;1.50;;
33593;SDS011;19920;52.242;20.940;2023-05-16T10:45:30;4.63;;;1.63;;
33593;SDS011;19920;52.242;20.940;2023-05-16T10:47:57;2.03;;;1.60;;
33593;SDS011;19920;52.242;20.940;2023-05-16T10:50:30;4.97;;;1.73;;
33593;SDS011;19920;52.242;20.940;2023-05-16T10:55:44;5.03;;;1.70;;
33593;SDS011;19920;52.242;20.940;2023-05-16T10:58:21;2.97;;;1.52;;
33593;SDS011;19920;52.242;20.940;2023-05-16T11:00:48;1.80;;;1.50;;
33593;SDS011;19920;52.242;20.940;2023-05-16T11:03:32;2.88;;;1.60;;
33593;SDS011;19920;52.242;20.940;2023-05-16T11:05:58;2.35;;;1.30;;
33593;SDS011;19920;52.242;20.940;2023-05-16T11:08:26;1.92;;;1.63;;
33593;SDS011;19920;52.242;20.940;2023-05-16T11:11:17;1.60;;;1.50;;
33593;SDS011;19920;52.242;20.940;2023-05-16T11:13:56;3.17;;;1.77;;
33593;SDS011;19920;52.242;20.940;2023-05-16T11:16:27;1.60;;;1.50;;
33593;SDS011;19920;52.242;20.940;2023-05-16T11:18:53;2.85;;;1.70;;
33593;SDS011;19920;52.242;20.940;2023-05-16T11:22:03;1.85;;;1.50;;
33593;SDS011;19920;52.242;20.940;2023-05-16T11:24:29;2.65;;;1.83;;
33593;SDS011;19920;52.242;20.940;2023-05-16T11:26:56;2.45;;;1.58;;
33593;SDS011;19920;52.242;20.940;2023-05-16T11:29:24;1.80;;;1.60;;
33593;SDS011;19920;52.242;20.940;2023-05-16T11:31:51;3.85;;;2.00;;
33593;SDS011;19920;52.242;20.940;2023-05-16T11:34:17;4.28;;;1.75;;
33593;SDS011;19920;52.242;20.940;2023-05-16T11:36:43;3.15;;;1.85;;
33593;SDS011;19920;52.242;20.940;2023-05-16T11:39:09;1.90;;;1.67;;
33593;SDS011;19920;52.242;20.940;2023-05-16T11:41:36;2.45;;;1.95;;
33593;SDS011;19920;52.242;20.940;2023-05-16T11:44:02;3.63;;;2.00;;
33593;SDS011;19920;52.242;20.940;2023-05-16T11:46:30;3.72;;;2.20;;
33593;SDS011;19920;52.242;20.940;2023-05-16T11:48:57;3.15;;;1.90;;
33593;SDS011;19920;52.242;20.940;2023-05-16T11:51:23;2.38;;;2.00;;
33593;SDS011;19920;52.242;20.940;2023-05-16T11:53:49;3.15;;;1.88;;
33593;SDS011;19920;52.242;20.940;2023-05-16T11:56:14;2.15;;;1.92;;
33593;SDS011;19920;52.242;20.940;2023-05-16T11:58:41;2.35;;;2.15;;
33593;SDS011;19920;52.242;20.940;2023-05-16T12:01:06;2.40;;;2.20;;
33593;SDS011;19920;52.242;20.940;2023-05-16T12:03:33;3.97;;;2.05;;
33593;SDS011;19920;52.242;20.940;2023-05-16T12:06:00;3.60;;;2.30;;
33593;SDS011;19920;52.242;20.940;2023-05-16T12:08:27;3.15;;;1.95;;
33593;SDS011;19920;52.242;20.940;2023-05-16T12:10:52;2.45;;;2.25;;
33593;SDS011;19920;52.242;20.940;2023-05-16T12:13:19;4.32;;;2.22;;
33593;SDS011;19920;52.242;20.940;2023-05-16T12:15:46;3.63;;;2.20;;
33593;SDS011;19920;52.242;20.940;2023-05-16T12:18:13;2.88;;;2.17;;
33593;SDS011;19920;52.242;20.940;2023-05-16T12:20:39;2.42;;;2.10;;
33593;SDS011;19920;52.242;20.940;2023-05-16T12:23:09;5.13;;;1.90;;
33593;SDS011;19920;52.242;20.940;2023-05-16T12:25:36;3.35;;;2.28;;
33593;SDS011;19920;52.242;20.940;2023-05-16T12:28:07;2.75;;;2.30;;
33593;SDS011;19920;52.242;20.940;2023-05-16T12:30:34;2.30;;;2.10;;
33593;SDS011;19920;52.242;20.940;2023-05-16T12:33:08;3.08;;;2.25;;
33593;SDS011;19920;52.242;20.940;2023-05-16T12:35:37;3.45;;;1.92;;
33593;SDS011;19920;52.242;20.940;2023-05-16T12:38:05;2.30;;;1.80;;
33593;SDS011;19920;52.242;20.940;2023-05-16T12:40:35;3.85;;;2.25;;
33593;SDS011;19920;52.242;20.940;2023-05-16T12:43:03;3.70;;;2.75;;
33593;SDS011;19920;52.242;20.940;2023-05-16T12:45:30;2.55;;;2.10;;
33593;SDS011;19920;52.242;20.940;2023-05-16T12:48:02;2.35;;;2.13;;
33593;SDS011;19920;52.242;20.940;2023-05-16T12:50:29;3.53;;;2.15;;
33593;SDS011;19920;52.242;20.940;2023-05-16T12:52:58;2.92;;;2.08;;
33593;SDS011;19920;52.242;20.940;2023-05-16T12:55:24;5.22;;;2.53;;
33593;SDS011;19920;52.242;20.940;2023-05-16T12:57:51;2.75;;;2.17;;
33593;SDS011;19920;52.242;20.940;2023-05-16T13:00:18;2.30;;;2.10;;
33593;SDS011;19920;52.242;20.940;2023-05-16T13:02:45;4.15;;;2.00;;
33593;SDS011;19920;52.242;20.940;2023-05-16T13:05:11;2.20;;;2.00;;
33593;SDS011;19920;52.242;20.940;2023-05-16T13:07:37;4.53;;;2.17;;
33593;SDS011;19920;52.242;20.940;2023-05-16T13:10:05;3.03;;;2.10;;
33593;SDS011;19920;52.242;20.940;2023-05-16T13:12:34;2.75;;;2.38;;
33593;SDS011;19920;52.242;20.940;2023-05-16T13:15:01;3.13;;;2.60;;
33593;SDS011;19920;52.242;20.940;2023-05-16T13:17:27;4.63;;;2.50;;
33593;SDS011;19920;52.242;20.940;2023-05-16T13:19:54;4.95;;;2.28;;
33593;SDS011;19920;52.242;20.940;2023-05-16T13:22:20;2.97;;;2.45;;
33593;SDS011;19920;52.242;20.940;2023-05-16T13:24:45;5.35;;;2.45;;
33593;SDS011;19920;52.242;20.940;2023-05-16T13:27:14;2.63;;;2.42;;
33593;SDS011;19920;52.242;20.940;2023-05-16T13:29:40;2.28;;;2.08;;
33593;SDS011;19920;52.242;20.940;2023-05-16T13:32:06;5.28;;;2.00;;
33593;SDS011;19920;52.242;20.940;2023-05-16T13:34:32;2.70;;;2.10;;
33593;SDS011;19920;52.242;20.940;2023-05-16T13:36:57;8.07;;;2.08;;
33593;SDS011;19920;52.242;20.940;2023-05-16T13:39:23;2.15;;;2.00;;
33593;SDS011;19920;52.242;20.940;2023-05-16T13:41:49;1.95;;;1.80;;
33593;SDS011;19920;52.242;20.940;2023-05-16T13:44:15;2.67;;;1.75;;
33593;SDS011;19920;52.242;20.940;2023-05-16T13:46:42;2.15;;;1.90;;
33593;SDS011;19920;52.242;20.940;2023-05-16T13:49:07;2.20;;;1.77;;
33593;SDS011;19920;52.242;20.940;2023-05-16T13:51:33;2.72;;;1.88;;
33593;SDS011;19920;52.242;20.940;2023-05-16T13:53:58;2.50;;;1.70;;
33593;SDS011;19920;52.242;20.940;2023-05-16T13:56:24;1.95;;;1.52;;
33593;SDS011;19920;52.242;20.940;2023-05-16T13:58:50;3.15;;;1.70;;
33593;SDS011;19920;52.242;20.940;2023-05-16T14:01:16;2.70;;;1.40;;
33593;SDS011;19920;52.242;20.940;2023-05-16T14:03:42;2.05;;;1.33;;
33593;SDS011;19920;52.242;20.940;2023-05-16T14:06:07;3.63;;;1.63;;
33593;SDS011;19920;52.242;20.940;2023-05-16T14:08:34;2.67;;;1.20;;
33593;SDS011;19920;52.242;20.940;2023-05-16T14:11:00;2.75;;;1.40;;
33593;SDS011;19920;52.242;20.940;2023-05-16T14:13:25;2.28;;;1.25;;
33593;SDS011;19920;52.242;20.940;2023-05-16T14:15:51;2.25;;;1.20;;
33593;SDS011;19920;52.242;20.940;2023-05-16T14:18:16;1.90;;;1.23;;
33593;SDS011;19920;52.242;20.940;2023-05-16T14:20:42;3.08;;;1.20;;
33593;SDS011;19920;52.242;20.940;2023-05-16T14:23:08;1.50;;;1.40;;
33593;SDS011;19920;52.242;20.940;2023-05-16T14:25:33;1.95;;;1.48;;
33593;SDS011;19920;52.242;20.940;2023-05-16T14:27:59;1.30;;;1.20;;
33593;SDS011;19920;52.242;20.940;2023-05-16T14:30:24;1.92;;;1.42;;
33593;SDS011;19920;52.242;20.940;2023-05-16T14:32:51;1.42;;;1.33;;
33593;SDS011;19920;52.242;20.940;2023-05-16T14:35:16;1.63;;;1.33;;
33593;SDS011;19920;52.242;20.940;2023-05-16T14:37:42;2.72;;;1.55;;
33593;SDS011;19920;52.242;20.940;2023-05-16T14:40:07;1.77;;;1.30;;
33593;SDS011;19920;52.242;20.940;2023-05-16T14:42:34;1.75;;;1.30;;
33593;SDS011;19920;52.242;20.940;2023-05-16T14:45:00;2.05;;;1.17;;